createdAt,value
2023-04-18T00:00:36.330Z,100.00
2023-04-18T00:01:40.467Z,100.00
2023-04-18T00:02:44.887Z,100.00
2023-04-18T00:03:49.697Z,100.00
2023-04-18T00:04:53.707Z,100.00
2023-04-18T00:05:58.140Z,100.00
2023-04-18T00:07:02.268Z,100.00
2023-04-18T00:08:06.855Z,100.00
2023-04-18T00:09:11.231Z,100.00
2023-04-18T00:10:15.559Z,100.00
2023-04-18T00:11:19.923Z,100.00
2023-04-18T00:12:24.023Z,100.00
2023-04-18T00:13:28.410Z,100.00
2023-04-18T00:14:32.722Z,100.00
2023-04-18T00:15:37.084Z,100.00
2023-04-18T00:16:41.978Z,100.00
2023-04-18T00:17:46.080Z,100.00
2023-04-18T00:18:50.428Z,100.00
2023-04-18T00:19:54.511Z,100.00
2023-04-18T00:20:58.877Z,100.00
2023-04-18T00:22:03.508Z,100.00
2023-04-18T00:23:07.583Z,100.00
2023-04-18T00:24:12.505Z,100.00
2023-04-18T00:25:16.284Z,100.00
2023-04-18T00:26:20.905Z,100.00
2023-04-18T00:27:20.846Z,100.00
2023-04-18T00:28:25.422Z,100.00
2023-04-18T00:29:29.764Z,100.00
2023-04-18T00:30:33.854Z,100.00
2023-04-18T00:31:38.171Z,100.00
2023-04-18T00:32:42.885Z,100.00
2023-04-18T00:33:47.128Z,100.00
2023-04-18T00:34:51.477Z,100.00
2023-04-18T00:35:55.559Z,100.00
2023-04-18T00:37:00.420Z,100.00
2023-04-18T00:38:04.514Z,100.00
2023-04-18T00:39:08.844Z,100.00
2023-04-18T00:40:12.951Z,100.00
2023-04-18T00:41:17.273Z,100.00
2023-04-18T00:42:21.878Z,100.00
2023-04-18T00:43:25.974Z,100.00
2023-04-18T00:44:30.310Z,100.00
2023-04-18T00:45:34.929Z,100.00
2023-04-18T00:46:39.348Z,100.00
2023-04-18T00:47:43.642Z,100.00
2023-04-18T00:48:47.660Z,100.00
2023-04-18T00:49:52.257Z,100.00
2023-04-18T00:50:56.371Z,100.00
2023-04-18T00:52:00.714Z,100.00
2023-04-18T00:53:05.294Z,100.00
2023-04-18T00:54:09.689Z,100.00
2023-04-18T00:55:13.990Z,100.00
2023-04-18T00:56:18.616Z,100.00
2023-04-18T00:57:18.831Z,100.00
2023-04-18T00:58:23.158Z,100.00
2023-04-18T00:59:27.250Z,100.00
2023-04-18T01:00:31.602Z,100.00
2023-04-18T01:01:35.968Z,100.00
2023-04-18T01:02:40.207Z,100.00
2023-04-18T01:03:44.886Z,100.00
2023-04-18T01:04:49.028Z,100.00
2023-04-18T01:05:53.104Z,100.00
2023-04-18T01:06:57.954Z,100.00
2023-04-18T01:08:02.348Z,100.00
2023-04-18T01:09:06.160Z,100.00
2023-04-18T01:10:10.797Z,100.00
2023-04-18T01:11:14.096Z,100.00
2023-04-18T01:12:19.504Z,100.00
2023-04-18T01:13:23.562Z,100.00
2023-04-18T01:14:28.163Z,100.00
2023-04-18T01:15:32.749Z,100.00
2023-04-18T01:16:37.302Z,100.00
2023-04-18T01:17:41.031Z,100.00
2023-04-18T01:18:45.257Z,100.00
2023-04-18T01:19:49.871Z,100.00
2023-04-18T01:20:54.679Z,100.00
2023-04-18T01:21:59.011Z,100.00
2023-04-18T01:23:03.082Z,100.00
2023-04-18T01:24:07.929Z,100.00
2023-04-18T01:25:12.052Z,100.00
2023-04-18T01:26:16.647Z,100.00
2023-04-18T01:27:16.798Z,100.00
2023-04-18T01:28:20.923Z,100.00
2023-04-18T01:29:24.979Z,100.00
2023-04-18T01:30:29.337Z,100.00
2023-04-18T01:31:33.715Z,100.00
2023-04-18T01:32:38.078Z,100.00
2023-04-18T01:33:42.413Z,100.00
2023-04-18T01:34:47.025Z,100.00
2023-04-18T01:35:51.628Z,100.00
2023-04-18T01:36:55.993Z,100.00
2023-04-18T01:37:59.851Z,100.00
2023-04-18T01:39:04.209Z,100.00
2023-04-18T01:40:08.811Z,100.00
2023-04-18T01:41:12.899Z,100.00
2023-04-18T01:42:17.263Z,100.00
2023-04-18T01:43:21.638Z,100.00
2023-04-18T01:44:26.271Z,100.00
2023-04-18T01:45:30.594Z,100.00
2023-04-18T01:46:34.979Z,100.00
2023-04-18T01:47:39.074Z,100.00
2023-04-18T01:48:43.684Z,100.00
2023-04-18T01:49:48.048Z,100.00
2023-04-18T01:50:52.126Z,100.00
2023-04-18T01:51:56.798Z,100.00
2023-04-18T01:53:01.131Z,100.00
2023-04-18T01:54:05.745Z,100.00
2023-04-18T01:55:10.093Z,100.00
2023-04-18T01:56:13.937Z,100.00
2023-04-18T01:57:14.580Z,100.00
2023-04-18T01:58:18.421Z,100.00
2023-04-18T01:59:22.748Z,100.00
2023-04-18T02:00:27.495Z,100.00
2023-04-18T02:01:31.700Z,100.00
2023-04-18T02:02:36.093Z,100.00
2023-04-18T02:03:40.359Z,100.00
2023-04-18T02:04:44.450Z,100.00
2023-04-18T02:05:49.081Z,100.00
2023-04-18T02:06:53.455Z,100.00
2023-04-18T02:07:57.538Z,100.00
2023-04-18T02:09:01.887Z,100.00
2023-04-18T02:10:06.545Z,100.00
2023-04-18T02:11:10.620Z,100.00
2023-04-18T02:12:15.286Z,100.00
2023-04-18T02:13:19.607Z,100.00
2023-04-18T02:14:24.206Z,100.00
2023-04-18T02:15:28.555Z,100.00
2023-04-18T02:16:32.468Z,100.00
2023-04-18T02:17:36.826Z,100.00
2023-04-18T02:18:41.389Z,100.00
2023-04-18T02:19:45.497Z,100.00
2023-04-18T02:20:49.859Z,100.00
2023-04-18T02:21:54.206Z,100.00
2023-04-18T02:22:58.834Z,100.00
2023-04-18T02:24:03.198Z,100.00
2023-04-18T02:25:07.538Z,100.00
2023-04-18T02:26:11.615Z,100.00
2023-04-18T02:27:12.549Z,100.00
2023-04-18T02:28:16.117Z,100.00
2023-04-18T02:29:20.712Z,100.00
2023-04-18T02:30:25.080Z,100.00
2023-04-18T02:31:29.205Z,100.00
2023-04-18T02:32:33.902Z,100.00
2023-04-18T02:33:38.128Z,100.00
2023-04-18T02:34:42.498Z,100.00
2023-04-18T02:35:46.843Z,100.00
2023-04-18T02:36:50.946Z,100.00
2023-04-18T02:37:55.291Z,100.00
2023-04-18T02:38:59.910Z,100.00
2023-04-18T02:40:03.993Z,100.00
2023-04-18T02:41:08.343Z,100.00
2023-04-18T02:42:12.687Z,100.00
2023-04-18T02:43:17.039Z,100.00
2023-04-18T02:44:21.923Z,100.00
2023-04-18T02:45:26.285Z,100.00
2023-04-18T02:46:30.426Z,100.00
2023-04-18T02:47:46.984Z,100.00
2023-04-18T02:48:38.826Z,100.00
2023-04-18T02:49:43.429Z,100.00
2023-04-18T02:50:47.515Z,100.00
2023-04-18T02:51:52.124Z,100.00
2023-04-18T02:52:56.726Z,100.00
2023-04-18T02:54:00.813Z,100.00
2023-04-18T02:55:04.975Z,100.00
2023-04-18T02:56:09.263Z,100.00
2023-04-18T02:57:09.686Z,100.00
2023-04-18T02:58:14.023Z,100.00
2023-04-18T02:59:18.105Z,100.00
2023-04-18T03:00:22.723Z,100.00
2023-04-18T03:01:27.088Z,100.00
2023-04-18T03:02:31.484Z,100.00
2023-04-18T03:03:35.658Z,100.00
2023-04-18T03:04:40.165Z,100.00
2023-04-18T03:05:44.452Z,100.00
2023-04-18T03:06:48.551Z,100.00
2023-04-18T03:07:53.145Z,100.00
2023-04-18T03:08:57.548Z,100.00
2023-04-18T03:10:01.671Z,100.00
2023-04-18T03:11:06.232Z,100.00
2023-04-18T03:12:10.280Z,100.00
2023-04-18T03:13:14.890Z,100.00
2023-04-18T03:14:19.224Z,100.00
2023-04-18T03:15:23.578Z,100.00
2023-04-18T03:16:27.949Z,100.00
2023-04-18T03:17:32.020Z,100.00
2023-04-18T03:18:36.353Z,100.00
2023-04-18T03:19:40.688Z,100.00
2023-04-18T03:20:45.070Z,100.00
2023-04-18T03:21:49.405Z,100.00
2023-04-18T03:22:54.000Z,100.00
2023-04-18T03:23:58.346Z,100.00
2023-04-18T03:25:02.444Z,100.00
2023-04-18T03:26:06.783Z,100.00
2023-04-18T03:27:12.435Z,100.00
2023-04-18T03:28:16.523Z,100.00
2023-04-18T03:29:21.105Z,100.00
2023-04-18T03:30:25.711Z,100.00
2023-04-18T03:31:30.066Z,100.00
2023-04-18T03:32:33.962Z,100.00
2023-04-18T03:33:38.531Z,100.00
2023-04-18T03:34:42.577Z,100.00
2023-04-18T03:35:47.196Z,100.00
2023-04-18T03:36:51.600Z,100.00
2023-04-18T03:37:55.597Z,100.00
2023-04-18T03:39:00.199Z,100.00
2023-04-18T03:40:04.548Z,100.00
2023-04-18T03:41:09.120Z,100.00
2023-04-18T03:42:12.963Z,100.00
2023-04-18T03:43:17.307Z,100.00
2023-04-18T03:44:21.679Z,100.00
2023-04-18T03:45:26.001Z,100.00
2023-04-18T03:46:30.379Z,100.00
2023-04-18T03:47:34.804Z,100.00
2023-04-18T03:48:39.547Z,100.00
2023-04-18T03:49:43.664Z,100.00
2023-04-18T03:50:47.969Z,100.00
2023-04-18T03:51:52.051Z,100.00
2023-04-18T03:52:56.728Z,100.00
2023-04-18T03:54:01.009Z,100.00
2023-04-18T03:55:05.100Z,100.00
2023-04-18T03:56:09.700Z,100.00
2023-04-18T03:57:15.332Z,100.00
2023-04-18T03:58:19.393Z,100.00
2023-04-18T03:59:23.743Z,100.00
2023-04-18T04:00:27.044Z,100.00
2023-04-18T04:01:32.431Z,100.00
2023-04-18T04:02:36.933Z,100.00
2023-04-18T04:03:41.317Z,100.00
2023-04-18T04:04:45.192Z,100.00
2023-04-18T04:05:49.527Z,100.00
2023-04-18T04:06:54.370Z,100.00
2023-04-18T04:07:58.744Z,100.00
2023-04-18T04:09:02.559Z,100.00
2023-04-18T04:10:07.137Z,100.00
2023-04-18T04:11:11.485Z,100.00
2023-04-18T04:12:15.568Z,100.00
2023-04-18T04:13:19.917Z,100.00
2023-04-18T04:14:24.532Z,100.00
2023-04-18T04:15:29.122Z,100.00
2023-04-18T04:16:33.583Z,100.00
2023-04-18T04:17:37.610Z,100.00
2023-04-18T04:18:41.945Z,100.00
2023-04-18T04:19:46.010Z,100.00
2023-04-18T04:20:50.632Z,100.00
2023-04-18T04:21:54.981Z,100.00
2023-04-18T04:22:59.075Z,100.00
2023-04-18T04:24:03.481Z,100.00
2023-04-18T04:25:08.037Z,100.00
2023-04-18T04:26:12.102Z,100.00
2023-04-18T04:27:17.715Z,100.00
2023-04-18T04:28:22.067Z,100.00
2023-04-18T04:29:26.404Z,100.00
2023-04-18T04:30:30.496Z,100.00
2023-04-18T04:31:34.917Z,100.00
2023-04-18T04:32:39.531Z,100.00
2023-04-18T04:33:43.800Z,100.00
2023-04-18T04:34:48.111Z,100.00
2023-04-18T04:35:52.460Z,100.00
2023-04-18T04:36:56.561Z,100.00
2023-04-18T04:38:01.155Z,100.00
2023-04-18T04:39:05.523Z,100.00
2023-04-18T04:40:09.597Z,100.00
2023-04-18T04:41:13.934Z,100.00
2023-04-18T04:42:18.537Z,100.00
2023-04-18T04:43:23.113Z,100.00
2023-04-18T04:44:27.064Z,100.00
2023-04-18T04:45:31.285Z,100.00
2023-04-18T04:46:35.874Z,100.00
2023-04-18T04:47:40.236Z,100.00
2023-04-18T04:48:44.543Z,100.00
2023-04-18T04:49:48.865Z,100.00
2023-04-18T04:50:53.213Z,100.00
2023-04-18T04:51:59.542Z,100.00
2023-04-18T04:53:01.929Z,100.00
2023-04-18T04:54:06.000Z,100.00
2023-04-18T04:55:10.600Z,100.00
2023-04-18T04:56:14.942Z,100.00
2023-04-18T04:57:20.560Z,100.00
2023-04-18T04:58:24.615Z,100.00
2023-04-18T04:59:29.229Z,100.00
2023-04-18T05:00:33.540Z,100.00
2023-04-18T05:01:37.678Z,100.00
2023-04-18T05:02:42.069Z,100.00
2023-04-18T05:03:46.249Z,100.00
2023-04-18T05:04:50.617Z,100.00
2023-04-18T05:05:54.836Z,100.00
2023-04-18T05:06:59.161Z,100.00
2023-04-18T05:08:03.764Z,100.00
2023-04-18T05:09:08.083Z,100.00
2023-04-18T05:10:12.678Z,100.00
2023-04-18T05:11:16.520Z,100.00
2023-04-18T05:12:20.881Z,100.00
2023-04-18T05:13:25.210Z,100.00
2023-04-18T05:14:29.544Z,100.00
2023-04-18T05:15:33.887Z,100.00
2023-04-18T05:16:38.275Z,100.00
2023-04-18T05:17:43.115Z,100.00
2023-04-18T05:18:47.426Z,100.00
2023-04-18T05:19:51.524Z,100.00
2023-04-18T05:20:55.615Z,100.00
2023-04-18T05:22:00.231Z,100.00
2023-04-18T05:23:04.312Z,100.00
2023-04-18T05:24:08.671Z,100.00
2023-04-18T05:25:13.285Z,100.00
2023-04-18T05:26:17.632Z,100.00
2023-04-18T05:27:23.244Z,100.00
2023-04-18T05:28:27.368Z,100.00
2023-04-18T05:29:31.438Z,100.00
2023-04-18T05:30:35.943Z,100.00
2023-04-18T05:31:40.126Z,100.00
2023-04-18T05:32:44.795Z,100.00
2023-04-18T05:33:49.087Z,100.00
2023-04-18T05:34:53.177Z,100.00
2023-04-18T05:35:57.826Z,100.00
2023-04-18T05:37:01.895Z,100.00
2023-04-18T05:38:06.494Z,100.00
2023-04-18T05:39:10.588Z,100.00
2023-04-18T05:40:14.929Z,100.00
2023-04-18T05:41:19.283Z,100.00
2023-04-18T05:42:23.615Z,100.00
2023-04-18T05:43:28.006Z,100.00
2023-04-18T05:44:32.852Z,100.00
2023-04-18T05:45:36.928Z,100.00
2023-04-18T05:46:41.064Z,100.00
2023-04-18T05:47:45.421Z,100.00
2023-04-18T05:48:49.691Z,100.00
2023-04-18T05:49:54.044Z,100.00
2023-04-18T05:50:58.383Z,100.00
2023-04-18T05:52:02.727Z,100.00
2023-04-18T05:53:07.320Z,100.00
2023-04-18T05:54:11.701Z,100.00
2023-04-18T05:55:16.018Z,100.00
2023-04-18T05:56:20.105Z,100.00
2023-04-18T05:57:26.061Z,100.00
2023-04-18T05:58:30.062Z,100.00
2023-04-18T05:59:34.407Z,100.00
2023-04-18T06:00:38.867Z,100.00
2023-04-18T06:01:43.131Z,100.00
2023-04-18T06:02:47.827Z,100.00
2023-04-18T06:03:51.894Z,100.00
2023-04-18T06:04:56.326Z,100.00
2023-04-18T06:06:00.562Z,100.00
2023-04-18T06:07:04.863Z,100.00
2023-04-18T06:08:08.966Z,100.00
2023-04-18T06:09:13.323Z,100.00
2023-04-18T06:10:17.664Z,100.00
2023-04-18T06:11:22.525Z,100.00
2023-04-18T06:12:26.871Z,100.00
2023-04-18T06:13:30.998Z,100.00
2023-04-18T06:14:35.066Z,100.00
2023-04-18T06:15:39.693Z,100.00
2023-04-18T06:16:44.158Z,100.00
2023-04-18T06:17:48.147Z,100.00
2023-04-18T06:18:52.726Z,100.00
2023-04-18T06:19:57.099Z,100.00
2023-04-18T06:21:01.698Z,100.00
2023-04-18T06:22:05.510Z,100.00
2023-04-18T06:23:09.864Z,100.00
2023-04-18T06:24:14.363Z,100.00
2023-04-18T06:25:18.784Z,100.00
2023-04-18T06:26:23.128Z,100.00
2023-04-18T06:27:31.549Z,100.00
2023-04-18T06:28:33.091Z,100.00
2023-04-18T06:29:38.083Z,100.00
2023-04-18T06:30:41.518Z,100.00
2023-04-18T06:31:45.707Z,100.00
2023-04-18T06:32:50.292Z,100.00
2023-04-18T06:33:54.611Z,100.00
2023-04-18T06:34:58.694Z,100.00
2023-04-18T06:36:03.304Z,100.00
2023-04-18T06:37:07.644Z,100.00
2023-04-18T06:38:12.248Z,100.00
2023-04-18T06:39:16.341Z,100.00
2023-04-18T06:40:20.448Z,100.00
2023-04-18T06:41:24.791Z,100.00
2023-04-18T06:42:29.405Z,100.00
2023-04-18T06:43:33.487Z,100.00
2023-04-18T06:44:37.858Z,100.00
2023-04-18T06:45:42.502Z,100.00
2023-04-18T06:46:47.045Z,100.00
2023-04-18T06:47:51.240Z,100.00
2023-04-18T06:48:55.485Z,100.00
2023-04-18T06:49:59.591Z,100.00
2023-04-18T06:51:04.203Z,100.00
2023-04-18T06:52:08.552Z,100.00
2023-04-18T06:53:12.910Z,100.00
2023-04-18T06:54:16.983Z,100.00
2023-04-18T06:55:21.593Z,100.00
2023-04-18T06:56:26.210Z,100.00
2023-04-18T06:57:31.535Z,100.00
2023-04-18T06:58:35.368Z,100.00
2023-04-18T06:59:39.709Z,100.00
2023-04-18T07:00:44.094Z,100.00
2023-04-18T07:01:48.400Z,100.00
2023-04-18T07:02:52.968Z,100.00
2023-04-18T07:03:57.449Z,100.00
2023-04-18T07:05:01.710Z,100.00
2023-04-18T07:06:05.789Z,100.00
2023-04-18T07:07:10.790Z,100.00
2023-04-18T07:08:15.074Z,100.00
2023-04-18T07:09:19.158Z,100.00
2023-04-18T07:10:24.201Z,100.00
2023-04-18T07:11:28.668Z,100.00
2023-04-18T07:12:32.723Z,100.00
2023-04-18T07:13:37.062Z,100.00
2023-04-18T07:14:41.411Z,100.00
2023-04-18T07:15:45.515Z,100.00
2023-04-18T07:16:49.923Z,100.00
2023-04-18T07:17:54.261Z,100.00
2023-04-18T07:18:58.849Z,100.00
2023-04-18T07:20:03.006Z,100.00
2023-04-18T07:21:08.022Z,100.00
2023-04-18T07:22:12.187Z,100.00
2023-04-18T07:23:16.580Z,100.00
2023-04-18T07:24:20.397Z,100.00
2023-04-18T07:25:24.744Z,100.00
2023-04-18T07:26:29.386Z,100.00
2023-04-18T07:27:34.993Z,100.00
2023-04-18T07:28:38.822Z,100.00
2023-04-18T07:29:43.487Z,100.00
2023-04-18T07:30:48.046Z,100.00
2023-04-18T07:31:52.415Z,100.00
2023-04-18T07:32:56.301Z,100.00
2023-04-18T07:34:00.877Z,100.00
2023-04-18T07:35:04.979Z,100.00
2023-04-18T07:36:09.532Z,100.00
2023-04-18T07:37:14.863Z,100.00
2023-04-18T07:38:18.115Z,100.00
2023-04-18T07:39:22.685Z,100.00
2023-04-18T07:40:27.325Z,100.00
2023-04-18T07:41:31.160Z,100.00
2023-04-18T07:42:43.528Z,100.00
2023-04-18T07:43:39.895Z,100.00
2023-04-18T07:44:44.520Z,100.00
2023-04-18T07:45:48.721Z,100.00
2023-04-18T07:46:53.214Z,100.00
2023-04-18T07:47:57.617Z,100.00
2023-04-18T07:49:02.296Z,100.00
2023-04-18T07:50:06.592Z,100.00
2023-04-18T07:51:10.690Z,100.00
2023-04-18T07:52:15.027Z,100.00
2023-04-18T07:53:19.364Z,100.00
2023-04-18T07:54:23.428Z,100.00
2023-04-18T07:55:27.746Z,100.00
2023-04-18T07:56:32.337Z,100.00
2023-04-18T07:57:38.239Z,100.00
2023-04-18T07:58:41.793Z,100.00
2023-04-18T07:59:46.167Z,100.00
2023-04-18T08:00:50.813Z,100.00
2023-04-18T08:01:55.183Z,100.00
2023-04-18T08:02:59.674Z,100.00
2023-04-18T08:04:04.087Z,100.00
2023-04-18T08:05:08.163Z,100.00
2023-04-18T08:06:12.913Z,100.00
2023-04-18T08:07:17.052Z,100.00
2023-04-18T08:08:21.378Z,100.00
2023-04-18T08:09:25.460Z,100.00
2023-04-18T08:10:29.797Z,100.00
2023-04-18T08:11:34.127Z,100.00
2023-04-18T08:12:38.714Z,100.00
2023-04-18T08:13:43.094Z,100.00
2023-04-18T08:14:47.688Z,100.00
2023-04-18T08:15:52.031Z,100.00
2023-04-18T08:16:56.103Z,100.00
2023-04-18T08:18:00.351Z,100.00
2023-04-18T08:19:04.784Z,100.00
2023-04-18T08:20:09.151Z,100.00
2023-04-18T08:21:13.465Z,100.00
2023-04-18T08:22:17.537Z,100.00
2023-04-18T08:23:22.285Z,100.00
2023-04-18T08:24:26.807Z,100.00
2023-04-18T08:25:31.111Z,100.00
2023-04-18T08:26:34.943Z,100.00
2023-04-18T08:27:40.569Z,100.00
2023-04-18T08:28:46.371Z,100.00
2023-04-18T08:29:49.001Z,100.00
2023-04-18T08:30:53.319Z,100.00
2023-04-18T08:31:57.742Z,100.00
2023-04-18T08:33:02.688Z,100.00
2023-04-18T08:34:06.659Z,100.00
2023-04-18T08:35:11.246Z,100.00
2023-04-18T08:36:15.320Z,100.00
2023-04-18T08:37:19.406Z,100.00
2023-04-18T08:38:23.760Z,100.00
2023-04-18T08:39:28.425Z,100.00
2023-04-18T08:40:32.723Z,100.00
2023-04-18T08:41:37.027Z,100.00
2023-04-18T08:42:41.376Z,100.00
2023-04-18T08:43:45.724Z,100.00
2023-04-18T08:44:50.065Z,100.00
2023-04-18T08:45:54.497Z,100.00
2023-04-18T08:46:58.533Z,100.00
2023-04-18T08:48:03.272Z,100.00
2023-04-18T08:49:07.458Z,100.00
2023-04-18T08:50:11.532Z,100.00
2023-04-18T08:51:16.373Z,100.00
2023-04-18T08:52:20.214Z,100.00
2023-04-18T08:53:24.823Z,100.00
2023-04-18T08:54:28.891Z,100.00
2023-04-18T08:55:33.517Z,100.00
2023-04-18T08:56:37.568Z,100.00
2023-04-18T08:57:43.177Z,100.00
2023-04-18T08:58:47.268Z,100.00
2023-04-18T08:59:51.852Z,100.00
2023-04-18T09:00:55.981Z,100.00
2023-04-18T09:02:00.297Z,100.00
2023-04-18T09:03:05.055Z,100.00
2023-04-18T09:04:09.285Z,100.00
2023-04-18T09:05:13.569Z,100.00
2023-04-18T09:06:17.904Z,100.00
2023-04-18T09:07:22.228Z,100.00
2023-04-18T09:08:26.574Z,100.00
2023-04-18T09:09:31.191Z,100.00
2023-04-18T09:10:35.290Z,100.00
2023-04-18T09:11:39.632Z,100.00
2023-04-18T09:12:43.960Z,100.00
2023-04-18T09:13:48.029Z,100.00
2023-04-18T09:14:52.661Z,100.00
2023-04-18T09:15:56.973Z,100.00
2023-04-18T09:17:01.348Z,100.00
2023-04-18T09:18:05.705Z,100.00
2023-04-18T09:19:09.993Z,100.00
2023-04-18T09:20:14.079Z,98.15
2023-04-18T09:21:18.700Z,97.76
2023-04-18T09:22:22.757Z,96.87
2023-04-18T09:23:27.110Z,95.55
2023-04-18T09:24:31.727Z,96.35
2023-04-18T09:25:36.346Z,94.15
2023-04-18T09:26:40.646Z,95.56
2023-04-18T09:27:45.964Z,93.22
2023-04-18T09:28:50.841Z,92.81
2023-04-18T09:29:56.477Z,91.36
2023-04-18T09:30:58.825Z,93.55
2023-04-18T09:32:03.078Z,95.77
2023-04-18T09:33:07.536Z,96.36
2023-04-18T09:34:11.571Z,97.34
2023-04-18T09:35:16.360Z,94.96
2023-04-18T09:36:20.526Z,94.16
2023-04-18T09:37:24.508Z,93.70
2023-04-18T09:38:28.861Z,91.70
2023-04-18T09:39:33.202Z,97.69
2023-04-18T09:40:37.546Z,97.13
2023-04-18T09:41:41.880Z,96.92
2023-04-18T09:42:46.244Z,96.94
2023-04-18T09:43:50.820Z,94.42
2023-04-18T09:44:56.885Z,96.14
2023-04-18T09:45:59.339Z,89.75
2023-04-18T09:47:03.840Z,91.73
2023-04-18T09:48:07.953Z,86.38
2023-04-18T09:49:12.704Z,81.63
2023-04-18T09:50:16.855Z,78.21
2023-04-18T09:51:20.935Z,75.96
2023-04-18T09:52:25.272Z,71.94
2023-04-18T09:53:29.873Z,68.41
2023-04-18T09:54:34.188Z,69.31
2023-04-18T09:55:38.289Z,68.10
2023-04-18T09:56:42.881Z,66.35
2023-04-18T09:57:48.235Z,66.25
2023-04-18T09:58:52.599Z,64.08
2023-04-18T09:59:56.899Z,65.09
2023-04-18T10:01:00.983Z,67.49
2023-04-18T10:02:05.891Z,67.01
2023-04-18T10:03:10.096Z,67.35
2023-04-18T10:04:14.692Z,66.42
2023-04-18T10:05:20.957Z,66.22
2023-04-18T10:06:22.954Z,65.76
2023-04-18T10:07:27.045Z,66.52
2023-04-18T10:08:31.368Z,65.54
2023-04-18T10:09:35.965Z,66.00
2023-04-18T10:10:40.572Z,65.13
2023-04-18T10:11:44.646Z,65.80
2023-04-18T10:12:48.735Z,65.89
2023-04-18T10:13:53.341Z,66.84
2023-04-18T10:14:57.465Z,67.43
2023-04-18T10:16:02.106Z,66.50
2023-04-18T10:17:06.118Z,65.63
2023-04-18T10:18:10.745Z,63.96
2023-04-18T10:19:15.250Z,66.34
2023-04-18T10:20:19.667Z,64.66
2023-04-18T10:21:24.046Z,66.06
2023-04-18T10:22:28.085Z,65.35
2023-04-18T10:23:32.429Z,67.07
2023-04-18T10:24:36.498Z,66.08
2023-04-18T10:25:41.106Z,64.68
2023-04-18T10:26:45.460Z,65.51
2023-04-18T10:27:51.105Z,64.76
2023-04-18T10:28:55.389Z,66.78
2023-04-18T10:29:59.483Z,65.22
2023-04-18T10:31:03.729Z,64.96
2023-04-18T10:32:08.156Z,64.42
2023-04-18T10:33:21.866Z,65.35
2023-04-18T10:34:16.587Z,64.90
2023-04-18T10:35:21.173Z,67.84
2023-04-18T10:36:25.515Z,65.62
2023-04-18T10:37:30.112Z,66.30
2023-04-18T10:38:34.440Z,65.20
2023-04-18T10:39:38.265Z,65.16
2023-04-18T10:40:42.598Z,65.46
2023-04-18T10:41:48.798Z,66.80
2023-04-18T10:42:51.525Z,67.51
2023-04-18T10:43:55.617Z,67.55
2023-04-18T10:45:00.218Z,67.04
2023-04-18T10:46:04.540Z,66.19
2023-04-18T10:47:09.179Z,66.28
2023-04-18T10:48:12.977Z,67.38
2023-04-18T10:49:17.303Z,67.36
2023-04-18T10:50:21.707Z,65.65
2023-04-18T10:51:26.230Z,65.88
2023-04-18T10:52:30.570Z,65.76
2023-04-18T10:53:34.908Z,66.54
2023-04-18T10:54:39.354Z,67.28
2023-04-18T10:55:43.615Z,67.59
2023-04-18T10:56:48.199Z,67.16
2023-04-18T10:57:53.536Z,66.74
2023-04-18T10:58:57.367Z,68.35
2023-04-18T11:00:02.052Z,67.21
2023-04-18T11:01:06.069Z,68.29
2023-04-18T11:02:10.438Z,69.58
2023-04-18T11:03:15.289Z,70.24
2023-04-18T11:04:19.936Z,69.66
2023-04-18T11:05:23.669Z,68.58
2023-04-18T11:06:27.816Z,67.22
2023-04-18T11:07:32.360Z,66.81
2023-04-18T11:08:36.438Z,67.32
2023-04-18T11:09:40.800Z,66.10
2023-04-18T11:10:45.405Z,67.26
2023-04-18T11:11:49.475Z,65.04
2023-04-18T11:12:54.074Z,64.89
2023-04-18T11:13:58.651Z,65.48
2023-04-18T11:15:02.468Z,65.05
2023-04-18T11:16:07.070Z,62.67
2023-04-18T11:17:11.146Z,63.93
2023-04-18T11:18:15.552Z,63.84
2023-04-18T11:19:19.857Z,63.84
2023-04-18T11:20:24.160Z,62.74
2023-04-18T11:21:30.442Z,63.13
2023-04-18T11:22:33.069Z,64.74
2023-04-18T11:23:37.411Z,61.96
2023-04-18T11:24:41.761Z,62.74
2023-04-18T11:25:46.143Z,62.95
2023-04-18T11:26:50.157Z,64.21
2023-04-18T11:27:56.026Z,64.59
2023-04-18T11:28:59.844Z,65.17
2023-04-18T11:30:04.206Z,64.72
2023-04-18T11:31:08.797Z,64.95
2023-04-18T11:32:13.168Z,66.03
2023-04-18T11:33:17.324Z,64.54
2023-04-18T11:34:21.851Z,65.81
2023-04-18T11:35:26.174Z,66.13
2023-04-18T11:36:30.265Z,64.53
2023-04-18T11:37:34.866Z,64.94
2023-04-18T11:38:38.965Z,63.74
2023-04-18T11:39:43.820Z,63.67
2023-04-18T11:40:47.960Z,64.68
2023-04-18T11:41:52.258Z,64.13
2023-04-18T11:42:56.357Z,64.07
2023-04-18T11:44:00.665Z,63.87
2023-04-18T11:45:05.009Z,63.32
2023-04-18T11:46:09.376Z,61.70
2023-04-18T11:47:13.689Z,62.27
2023-04-18T11:48:18.285Z,59.98
2023-04-18T11:49:22.634Z,61.59
2023-04-18T11:50:27.238Z,60.55
2023-04-18T11:51:31.300Z,59.23
2023-04-18T11:52:35.400Z,58.50
2023-04-18T11:53:39.723Z,59.04
2023-04-18T11:54:44.057Z,59.51
2023-04-18T11:55:48.674Z,58.24
2023-04-18T11:56:53.016Z,59.21
2023-04-18T11:57:58.647Z,61.06
2023-04-18T11:59:02.939Z,61.58
2023-04-18T12:00:07.024Z,61.35
2023-04-18T12:01:11.096Z,61.03
2023-04-18T12:02:17.044Z,59.43
2023-04-18T12:03:20.398Z,59.62
2023-04-18T12:04:24.333Z,58.91
2023-04-18T12:05:28.681Z,59.80
2023-04-18T12:06:33.194Z,60.88
2023-04-18T12:07:37.675Z,61.56
2023-04-18T12:08:42.005Z,61.93
2023-04-18T12:09:45.833Z,63.07
2023-04-18T12:10:50.487Z,63.34
2023-04-18T12:11:54.524Z,63.13
2023-04-18T12:12:59.119Z,64.26
2023-04-18T12:14:04.206Z,65.42
2023-04-18T12:15:07.579Z,64.92
2023-04-18T12:16:12.453Z,64.75
2023-04-18T12:17:16.479Z,65.61
2023-04-18T12:18:20.834Z,66.03
2023-04-18T12:19:25.144Z,67.08
2023-04-18T12:20:29.491Z,67.24
2023-04-18T12:21:33.837Z,67.03
2023-04-18T12:22:38.233Z,66.40
2023-04-18T12:23:42.256Z,67.67
2023-04-18T12:24:46.861Z,67.59
2023-04-18T12:25:51.202Z,66.71
2023-04-18T12:26:55.585Z,66.59
2023-04-18T12:28:00.899Z,66.45
2023-04-18T12:29:04.977Z,65.46
2023-04-18T12:30:09.570Z,67.52
2023-04-18T12:31:13.921Z,67.27
2023-04-18T12:32:17.988Z,66.98
2023-04-18T12:33:22.830Z,66.78
2023-04-18T12:34:27.198Z,68.07
2023-04-18T12:35:31.016Z,68.72
2023-04-18T12:36:35.618Z,70.29
2023-04-18T12:37:39.946Z,69.44
2023-04-18T12:38:44.315Z,69.76
2023-04-18T12:39:48.629Z,69.08
2023-04-18T12:40:52.721Z,70.07
2023-04-18T12:41:57.326Z,68.58
2023-04-18T12:43:03.779Z,67.63
2023-04-18T12:44:06.271Z,68.36
2023-04-18T12:45:10.096Z,68.66
2023-04-18T12:46:14.707Z,68.57
2023-04-18T12:47:19.065Z,71.26
2023-04-18T12:48:23.100Z,71.50
2023-04-18T12:49:27.739Z,71.70
2023-04-18T12:50:32.051Z,69.84
2023-04-18T12:51:36.655Z,71.57
2023-04-18T12:52:41.006Z,71.70
2023-04-18T12:53:45.074Z,71.38
2023-04-18T12:54:49.219Z,70.05
2023-04-18T12:55:53.741Z,68.67
2023-04-18T12:56:57.866Z,68.24
2023-04-18T12:58:04.258Z,69.00
2023-04-18T12:59:08.081Z,68.71
2023-04-18T13:00:13.125Z,69.61
2023-04-18T13:01:17.330Z,68.48
2023-04-18T13:02:21.463Z,70.38
2023-04-18T13:03:25.725Z,68.15
2023-04-18T13:04:30.210Z,67.03
2023-04-18T13:05:34.402Z,66.80
2023-04-18T13:06:38.471Z,67.42
2023-04-18T13:07:42.804Z,67.35
2023-04-18T13:08:47.409Z,67.66
2023-04-18T13:09:51.786Z,66.47
2023-04-18T13:10:55.843Z,67.03
2023-04-18T13:12:00.183Z,66.47
2023-04-18T13:13:04.762Z,66.64
2023-04-18T13:14:08.852Z,68.17
2023-04-18T13:15:13.193Z,67.50
2023-04-18T13:16:17.880Z,65.76
2023-04-18T13:17:22.175Z,66.26
2023-04-18T13:18:26.724Z,66.13
2023-04-18T13:19:30.819Z,67.51
2023-04-18T13:20:35.140Z,66.18
2023-04-18T13:21:39.494Z,67.26
2023-04-18T13:22:43.565Z,65.95
2023-04-18T13:23:48.162Z,67.75
2023-04-18T13:24:52.513Z,69.06
2023-04-18T13:25:56.626Z,68.76
2023-04-18T13:27:01.846Z,68.50
2023-04-18T13:28:07.044Z,68.43
2023-04-18T13:29:10.871Z,68.76
2023-04-18T13:30:14.968Z,68.48